Time;durP1;ratioP1;P1;durP2;ratioP2;P2;SDS_P1;SDS_P2;PMS_P1;PMS_P2;Temp;Humidity;BMP_temperature;BMP_pressure;BME280_temperature;BME280_humidity;BME280_pressure;Samples;Min_cycle;Max_cycle;Signal;HPM_P1;HPM_P2
2021/08/13 00:00:00;;;;;;;;;;;17.80;88.20;;;;;;4975425;28;20315;-62
2021/08/13 00:02:25;;;;;;;;;;;17.70;88.80;;;;;;4978423;28;19941;-62
2021/08/13 00:04:51;;;;;;;;;;;17.70;88.50;;;;;;4977013;28;20307;-62
2021/08/13 00:07:16;;;;;;;;;;;17.70;88.80;;;;;;4975330;28;20387;-61
2021/08/13 00:09:42;;;;;;;;;;;17.70;88.90;;;;;;4975774;28;19922;-62
2021/08/13 00:12:08;;;;;;;;;;;17.70;89.10;;;;;;4975304;28;19919;-62
2021/08/13 00:14:34;;;;;;;;;;;17.70;89.30;;;;;;4975677;28;19926;-62
2021/08/13 00:16:59;;;;;;;;;;;17.80;89.50;;;;;;4975134;28;19956;-62
2021/08/13 00:19:25;;;;;;;;;;;17.80;89.60;;;;;;4975109;28;19939;-62
2021/08/13 00:21:52;;;;;;;;;;;17.80;89.60;;;;;;4975651;28;19925;-62
2021/08/13 00:24:17;;;;;;;;;;;17.90;89.80;;;;;;4975381;28;19918;-62
2021/08/13 00:26:43;;;;;;;;;;;17.80;89.70;;;;;;4974840;28;19929;-62
2021/08/13 00:29:08;;;;;;;;;;;17.90;89.80;;;;;;4975418;28;19925;-62
2021/08/13 00:31:34;;;;;;;;;;;17.90;89.90;;;;;;4989748;28;19918;-62
2021/08/13 00:33:59;;;;;;;;;;;17.90;89.90;;;;;;4990168;28;19957;-62
2021/08/13 00:36:26;;;;;;;;;;;17.90;90.20;;;;;;4973890;28;19925;-62
2021/08/13 00:38:54;;;;;;;;;;;17.90;90.00;;;;;;4989456;28;19922;-62
2021/08/13 00:41:20;;;;;;;;;;;17.90;90.00;;;;;;4990038;28;19925;-62
2021/08/13 00:43:48;;;;;;;;;;;17.90;90.10;;;;;;4974740;28;19918;-62
2021/08/13 00:46:16;;;;;;;;;;;17.90;90.10;;;;;;4989918;28;20038;-62
2021/08/13 00:49:11;;;;;;;;;;;17.90;90.20;;;;;;4963800;28;19925;-62
2021/08/13 00:51:44;;;;;;;;;;;17.90;90.20;;;;;;4989975;28;20375;-61
2021/08/13 00:54:12;;;;;;;;;;;17.90;90.30;;;;;;4973070;28;19977;-62
2021/08/13 00:56:45;;;;;;;;;;;17.80;90.30;;;;;;4989476;28;19921;-62
2021/08/13 00:59:37;;;;;;;;;;;17.90;90.30;;;;;;4976830;23;20450;-61
2021/08/13 01:02:15;;;;;;;;;;;17.90;90.40;;;;;;4992638;28;20421;-60
2021/08/13 01:04:44;;;;;;;;;;;17.90;90.40;;;;;;4992298;28;19918;-60
2021/08/13 01:07:17;;;;;;;;;;;17.90;90.40;;;;;;4992381;28;19972;-60
2021/08/13 01:09:44;;;;;;;;;;;17.90;90.70;;;;;;4992204;28;20424;-60
2021/08/13 01:12:24;;;;;;;;;;;17.90;90.50;;;;;;4992570;28;19917;-61
2021/08/13 01:14:57;;;;;;;;;;;18.00;90.50;;;;;;4992096;28;19918;-60
2021/08/13 01:17:23;;;;;;;;;;;18.00;90.50;;;;;;4992188;28;20422;-60
2021/08/13 01:20:03;;;;;;;;;;;17.90;90.50;;;;;;4992587;28;20310;-60
2021/08/13 01:22:36;;;;;;;;;;;17.90;90.50;;;;;;4995787;28;20020;-61
2021/08/13 01:25:04;;;;;;;;;;;17.90;90.60;;;;;;5004244;28;19918;-60
2021/08/13 01:27:34;;;;;;;;;;;17.90;90.60;;;;;;4991787;28;19925;-60
2021/08/13 01:30:09;;;;;;;;;;;17.90;90.60;;;;;;4992219;28;20413;-60
2021/08/13 01:33:08;;;;;;;;;;;17.90;90.70;;;;;;4992977;28;20009;-61
2021/08/13 01:35:42;;;;;;;;;;;17.90;90.70;;;;;;4975942;28;19925;-60
2021/08/13 01:38:24;;;;;;;;;;;18.00;90.80;;;;;;4991725;28;19941;-60
2021/08/13 01:40:56;;;;;;;;;;;18.00;90.80;;;;;;4991986;28;19918;-60
2021/08/13 01:43:23;;;;;;;;;;;18.00;90.80;;;;;;4991902;28;19917;-60
2021/08/13 01:45:53;;;;;;;;;;;18.00;90.80;;;;;;4991578;28;20279;-61
2021/08/13 01:48:20;;;;;;;;;;;18.00;90.80;;;;;;4991621;28;20366;-61
2021/08/13 01:50:46;;;;;;;;;;;18.00;90.80;;;;;;4991785;28;19918;-61
2021/08/13 01:53:14;;;;;;;;;;;18.00;90.80;;;;;;4991206;28;19921;-60
2021/08/13 01:55:40;;;;;;;;;;;18.00;90.80;;;;;;4991770;28;19961;-61
2021/08/13 01:58:09;;;;;;;;;;;18.00;90.90;;;;;;4990682;28;19918;-61
2021/08/13 02:00:36;;;;;;;;;;;18.00;90.90;;;;;;4991377;28;20008;-61
2021/08/13 02:03:02;;;;;;;;;;;18.00;90.90;;;;;;4992900;28;20012;-60
2021/08/13 02:05:30;;;;;;;;;;;18.00;91.10;;;;;;4975291;28;19963;-60
2021/08/13 02:07:58;;;;;;;;;;;18.00;91.00;;;;;;4991194;28;20325;-60
2021/08/13 02:10:27;;;;;;;;;;;18.00;91.00;;;;;;4990979;28;19918;-60
2021/08/13 02:12:52;;;;;;;;;;;18.00;91.00;;;;;;4991375;28;20393;-60
2021/08/13 02:15:19;;;;;;;;;;;18.00;91.00;;;;;;4992687;28;20267;-60
2021/08/13 02:17:55;;;;;;;;;;;18.00;91.00;;;;;;4990623;28;19922;-60
2021/08/13 02:20:21;;;;;;;;;;;18.00;91.00;;;;;;4991420;28;19918;-60
2021/08/13 02:22:48;;;;;;;;;;;18.00;91.00;;;;;;4990938;28;20004;-60
2021/08/13 02:25:14;;;;;;;;;;;18.00;91.00;;;;;;4991252;28;20017;-60
2021/08/13 02:27:40;;;;;;;;;;;18.10;91.10;;;;;;4991120;28;20375;-60
2021/08/13 02:30:07;;;;;;;;;;;18.00;91.00;;;;;;4990660;28;19925;-61
2021/08/13 02:32:35;;;;;;;;;;;18.00;91.00;;;;;;4992285;28;19922;-60
2021/08/13 02:35:27;;;;;;;;;;;18.00;91.00;;;;;;4990720;28;20386;-60
2021/08/13 02:38:30;;;;;;;;;;;18.00;91.00;;;;;;4990643;28;19976;-60
2021/08/13 02:40:52;;;;;;;;;;;17.90;91.00;;;;;;4990469;28;20267;-60
2021/08/13 02:43:24;;;;;;;;;;;17.90;91.00;;;;;;4990963;28;20262;-60
2021/08/13 02:45:56;;;;;;;;;;;17.80;91.00;;;;;;4990907;28;19925;-60
2021/08/13 02:48:22;;;;;;;;;;;17.80;91.10;;;;;;4990615;28;19940;-60
2021/08/13 02:50:49;;;;;;;;;;;17.70;91.10;;;;;;4990574;28;20342;-60
2021/08/13 02:53:21;;;;;;;;;;;17.70;91.20;;;;;;4990773;28;19922;-60
2021/08/13 02:55:51;;;;;;;;;;;17.70;91.20;;;;;;4990411;28;19924;-60
2021/08/13 02:58:19;;;;;;;;;;;17.70;91.20;;;;;;4990603;28;19960;-60
2021/08/13 03:00:45;;;;;;;;;;;17.70;91.30;;;;;;4992046;28;20450;-61
2021/08/13 03:03:13;;;;;;;;;;;17.70;91.20;;;;;;4990465;28;19924;-61
2021/08/13 03:05:47;;;;;;;;;;;17.60;91.20;;;;;;4990784;28;19924;-61
2021/08/13 03:08:14;;;;;;;;;;;17.60;91.30;;;;;;4990109;28;20333;-61
2021/08/13 03:10:39;;;;;;;;;;;17.60;91.30;;;;;;4991307;28;19933;-61
2021/08/13 03:13:06;;;;;;;;;;;17.50;91.20;;;;;;4994741;28;19929;-61
2021/08/13 03:15:32;;;;;;;;;;;17.50;91.20;;;;;;4995641;28;20017;-61
2021/08/13 03:17:58;;;;;;;;;;;17.40;91.20;;;;;;4994367;28;20390;-61
2021/08/13 03:20:24;;;;;;;;;;;17.30;91.20;;;;;;4994559;28;19917;-61
2021/08/13 03:23:06;;;;;;;;;;;17.30;91.20;;;;;;4994028;28;19985;-61
2021/08/13 03:25:31;;;;;;;;;;;17.20;91.30;;;;;;4994666;28;19918;-61
2021/08/13 03:27:59;;;;;;;;;;;17.20;91.40;;;;;;4977786;28;20289;-61
2021/08/13 03:30:24;;;;;;;;;;;17.10;91.40;;;;;;4995848;28;19921;-61
2021/08/13 03:32:50;;;;;;;;;;;17.10;91.40;;;;;;4978114;28;20424;-61
2021/08/13 03:35:17;;;;;;;;;;;17.00;91.70;;;;;;4993967;28;19926;-61
2021/08/13 03:37:43;;;;;;;;;;;17.00;91.50;;;;;;4994059;28;20397;-62
2021/08/13 03:40:09;;;;;;;;;;;16.90;91.50;;;;;;4995590;28;19968;-61
2021/08/13 03:42:37;;;;;;;;;;;17.00;91.50;;;;;;4993901;28;20298;-61
2021/08/13 03:45:03;;;;;;;;;;;16.90;91.60;;;;;;4994179;28;19925;-61
2021/08/13 03:47:30;;;;;;;;;;;16.90;91.60;;;;;;5009484;28;19918;-61
2021/08/13 03:49:56;;;;;;;;;;;16.80;91.70;;;;;;4994038;28;19955;-61
2021/08/13 03:52:21;;;;;;;;;;;16.80;91.80;;;;;;4994084;28;19918;-61
2021/08/13 03:54:48;;;;;;;;;;;16.80;91.90;;;;;;4993663;28;19926;-61
2021/08/13 03:57:14;;;;;;;;;;;16.70;91.90;;;;;;4993592;28;19945;-61
2021/08/13 03:59:41;;;;;;;;;;;16.80;91.90;;;;;;4993310;28;20004;-61
2021/08/13 04:02:06;;;;;;;;;;;16.80;91.90;;;;;;4993961;28;20552;-60
2021/08/13 04:04:32;;;;;;;;;;;16.80;91.90;;;;;;4994228;28;19918;-61
2021/08/13 04:06:57;;;;;;;;;;;16.70;91.90;;;;;;4993618;28;19925;-60
2021/08/13 04:09:23;;;;;;;;;;;16.70;92.00;;;;;;4993825;28;20157;-61
2021/08/13 04:11:49;;;;;;;;;;;16.70;92.00;;;;;;4995067;28;19918;-61
2021/08/13 04:14:16;;;;;;;;;;;16.70;92.00;;;;;;4993374;28;19980;-61
2021/08/13 04:16:42;;;;;;;;;;;16.70;92.00;;;;;;4993447;28;19928;-61
2021/08/13 04:19:08;;;;;;;;;;;16.70;92.00;;;;;;4993245;28;20013;-61
2021/08/13 04:21:36;;;;;;;;;;;16.60;92.10;;;;;;4993110;28;19917;-61
2021/08/13 04:24:02;;;;;;;;;;;16.60;92.10;;;;;;4994928;28;19925;-62
2021/08/13 04:26:28;;;;;;;;;;;16.50;92.10;;;;;;4976882;28;19920;-61
2021/08/13 04:28:53;;;;;;;;;;;16.60;92.30;;;;;;4994450;28;20000;-61
2021/08/13 04:31:19;;;;;;;;;;;16.50;92.40;;;;;;4993333;28;19925;-61
2021/08/13 04:33:46;;;;;;;;;;;16.60;92.40;;;;;;4992806;28;19983;-61
2021/08/13 04:36:16;;;;;;;;;;;16.60;92.40;;;;;;4993385;28;20301;-61
2021/08/13 04:38:42;;;;;;;;;;;16.60;92.40;;;;;;4976471;28;19925;-62
2021/08/13 04:41:09;;;;;;;;;;;16.60;92.50;;;;;;4994014;28;19925;-61
2021/08/13 04:43:37;;;;;;;;;;;16.70;92.50;;;;;;4993566;28;20060;-61
2021/08/13 04:46:03;;;;;;;;;;;16.70;92.50;;;;;;4992733;28;20358;-61
2021/08/13 04:48:29;;;;;;;;;;;16.70;92.50;;;;;;4994172;28;19944;-61
2021/08/13 04:50:56;;;;;;;;;;;16.70;92.50;;;;;;4992607;28;20044;-61
2021/08/13 04:53:21;;;;;;;;;;;16.70;92.60;;;;;;4992987;28;20021;-61
2021/08/13 04:55:47;;;;;;;;;;;16.80;92.70;;;;;;4992935;28;19914;-61
2021/08/13 04:58:14;;;;;;;;;;;16.80;92.70;;;;;;4992209;28;19940;-61
2021/08/13 05:00:40;;;;;;;;;;;16.80;92.80;;;;;;4992801;28;20381;-62
2021/08/13 05:03:11;;;;;;;;;;;16.90;92.90;;;;;;4992804;28;20374;-61
2021/08/13 05:05:44;;;;;;;;;;;17.00;93.00;;;;;;4977248;28;19925;-61
2021/08/13 05:08:09;;;;;;;;;;;17.10;93.00;;;;;;4993682;28;19921;-61
2021/08/13 05:10:37;;;;;;;;;;;17.20;93.00;;;;;;4991743;28;19998;-61
2021/08/13 05:13:04;;;;;;;;;;;17.30;93.00;;;;;;4992406;28;19922;-61
2021/08/13 05:15:31;;;;;;;;;;;17.50;93.00;;;;;;4992563;28;20061;-61
2021/08/13 05:17:58;;;;;;;;;;;17.60;93.10;;;;;;4991770;28;20337;-61
2021/08/13 05:20:24;;;;;;;;;;;17.70;93.00;;;;;;4992517;28;19918;-61
2021/08/13 05:22:57;;;;;;;;;;;17.80;93.00;;;;;;4991994;28;19918;-62
2021/08/13 05:25:23;;;;;;;;;;;18.00;93.00;;;;;;4976012;28;19980;-61
2021/08/13 05:27:49;;;;;;;;;;;18.10;93.00;;;;;;4991904;28;19918;-62
2021/08/13 05:30:15;;;;;;;;;;;18.20;92.90;;;;;;4991414;28;19924;-61
2021/08/13 05:32:43;;;;;;;;;;;18.40;92.90;;;;;;4991754;28;19972;-62
2021/08/13 05:35:10;;;;;;;;;;;18.50;92.90;;;;;;4991280;28;19941;-62
2021/08/13 05:37:36;;;;;;;;;;;18.70;92.90;;;;;;4991745;28;19940;-61
2021/08/13 05:40:03;;;;;;;;;;;18.80;92.80;;;;;;4991898;28;20459;-62
2021/08/13 05:42:29;;;;;;;;;;;19.00;92.80;;;;;;4991421;28;19922;-61
2021/08/13 05:44:54;;;;;;;;;;;19.20;92.90;;;;;;4991797;28;20440;-62
2021/08/13 05:47:20;;;;;;;;;;;19.50;92.90;;;;;;4992691;28;19918;-62
2021/08/13 05:49:46;;;;;;;;;;;19.90;93.50;;;;;;4991819;28;19940;-63
2021/08/13 05:52:12;;;;;;;;;;;20.90;95.40;;;;;;4991826;28;19917;-63
2021/08/13 05:54:37;;;;;;;;;;;22.10;96.10;;;;;;4991292;28;19922;-65
2021/08/13 05:57:03;;;;;;;;;;;23.40;95.60;;;;;;4992762;28;19917;-63
2021/08/13 05:59:28;;;;;;;;;;;24.50;94.70;;;;;;4975290;28;20329;-62
2021/08/13 06:01:54;;;;;;;;;;;25.50;93.30;;;;;;4990970;28;19929;-63
2021/08/13 06:04:20;;;;;;;;;;;26.40;92.00;;;;;;4992965;28;19922;-63
2021/08/13 06:06:46;;;;;;;;;;;27.10;90.80;;;;;;4991031;28;20017;-64
2021/08/13 06:09:14;;;;;;;;;;;27.80;89.30;;;;;;4990966;28;19922;-63
2021/08/13 06:11:40;;;;;;;;;;;28.30;85.60;;;;;;4991391;28;19918;-63
2021/08/13 06:14:07;;;;;;;;;;;28.60;82.40;;;;;;4992236;28;20267;-62
2021/08/13 06:16:33;;;;;;;;;;;28.90;80.40;;;;;;4991328;28;20337;-62
2021/08/13 06:18:59;;;;;;;;;;;29.20;78.50;;;;;;4990907;28;19925;-62
2021/08/13 06:21:25;;;;;;;;;;;29.40;76.40;;;;;;4990835;28;19918;-62
2021/08/13 06:23:52;;;;;;;;;;;29.70;74.70;;;;;;4991012;28;19928;-62
2021/08/13 06:26:19;;;;;;;;;;;30.20;73.40;;;;;;4991113;28;19957;-62
2021/08/13 06:28:48;;;;;;;;;;;30.80;71.50;;;;;;4990490;28;20397;-62
2021/08/13 06:31:14;;;;;;;;;;;31.40;69.70;;;;;;4991009;28;19949;-63
2021/08/13 06:33:41;;;;;;;;;;;31.90;67.50;;;;;;4974553;28;20294;-62
2021/08/13 06:36:07;;;;;;;;;;;32.50;65.70;;;;;;4990932;28;19983;-62
2021/08/13 06:38:35;;;;;;;;;;;32.90;62.70;;;;;;4990623;28;19991;-62
2021/08/13 06:41:01;;;;;;;;;;;33.10;60.70;;;;;;4991501;28;20402;-62
2021/08/13 06:43:27;;;;;;;;;;;33.40;59.00;;;;;;4990925;28;19917;-63
2021/08/13 06:45:57;;;;;;;;;;;33.70;57.90;;;;;;4990391;28;19918;-62
2021/08/13 06:48:30;;;;;;;;;;;34.00;56.40;;;;;;4990599;28;20289;-62
2021/08/13 06:50:56;;;;;;;;;;;34.60;55.60;;;;;;4974144;28;19926;-62
2021/08/13 06:53:24;;;;;;;;;;;35.00;53.70;;;;;;4990723;28;19922;-63
2021/08/13 06:55:49;;;;;;;;;;;35.60;52.30;;;;;;4990821;28;19969;-62
2021/08/13 06:58:16;;;;;;;;;;;36.10;50.50;;;;;;4990166;28;19926;-62
2021/08/13 07:00:42;;;;;;;;;;;36.50;49.20;;;;;;5011520;22;19932;-64
2021/08/13 07:03:09;;;;;;;;;;;37.00;48.20;;;;;;5026790;28;19953;-63
2021/08/13 07:05:34;;;;;;;;;;;37.40;46.40;;;;;;5010045;28;20408;-64
2021/08/13 07:08:07;;;;;;;;;;;37.70;44.50;;;;;;5011347;28;20321;-64
2021/08/13 07:10:33;;;;;;;;;;;37.90;43.50;;;;;;5019532;28;19925;-64
2021/08/13 07:12:59;;;;;;;;;;;38.00;42.40;;;;;;4990626;28;19928;-64
2021/08/13 07:15:24;;;;;;;;;;;38.30;41.80;;;;;;4990597;28;20001;-62
2021/08/13 07:17:50;;;;;;;;;;;38.60;40.90;;;;;;5006187;28;19918;-64
2021/08/13 07:20:16;;;;;;;;;;;38.40;39.50;;;;;;5006805;28;19941;-63
2021/08/13 07:22:42;;;;;;;;;;;38.50;39.50;;;;;;4989689;28;20297;-64
2021/08/13 07:25:08;;;;;;;;;;;38.50;38.60;;;;;;5006846;28;19918;-63
2021/08/13 07:27:34;;;;;;;;;;;37.90;37.50;;;;;;4990179;28;19922;-63
2021/08/13 07:30:01;;;;;;;;;;;36.70;37.10;;;;;;5006529;28;19918;-63
2021/08/13 07:32:27;;;;;;;;;;;35.00;37.30;;;;;;5006720;28;19984;-64
2021/08/13 07:34:54;;;;;;;;;;;33.70;39.00;;;;;;4974413;28;19918;-64
2021/08/13 07:37:26;;;;;;;;;;;33.50;40.60;;;;;;4984538;28;20008;-64
2021/08/13 07:39:52;;;;;;;;;;;34.00;41.50;;;;;;5026329;28;19925;-64
2021/08/13 07:42:18;;;;;;;;;;;35.00;41.80;;;;;;5010749;28;19918;-65
2021/08/13 07:44:44;;;;;;;;;;;36.10;41.80;;;;;;5010088;28;19917;-64
2021/08/13 07:47:11;;;;;;;;;;;37.30;40.50;;;;;;5026110;28;19917;-65
2021/08/13 07:49:37;;;;;;;;;;;38.40;39.50;;;;;;5009608;28;20385;-65
2021/08/13 07:52:03;;;;;;;;;;;39.40;38.10;;;;;;5026288;28;19918;-65
2021/08/13 07:54:29;;;;;;;;;;;40.40;37.40;;;;;;5011346;28;20048;-65
2021/08/13 07:56:55;;;;;;;;;;;41.10;35.60;;;;;;5010515;28;20455;-65
2021/08/13 07:59:20;;;;;;;;;;;41.30;33.90;;;;;;5029892;28;20021;-65
2021/08/13 08:01:47;;;;;;;;;;;41.30;33.60;;;;;;5029660;28;19922;-64
2021/08/13 08:04:12;;;;;;;;;;;41.60;33.60;;;;;;5014033;28;19917;-64
2021/08/13 08:06:38;;;;;;;;;;;42.20;32.90;;;;;;5014453;28;19917;-65
2021/08/13 08:09:04;;;;;;;;;;;42.60;32.40;;;;;;5014179;28;20305;-66
2021/08/13 08:11:29;;;;;;;;;;;43.10;31.90;;;;;;5014705;28;20008;-66
2021/08/13 08:13:55;;;;;;;;;;;43.70;31.00;;;;;;5014401;28;20435;-65
2021/08/13 08:16:20;;;;;;;;;;;43.80;30.00;;;;;;5014122;28;19922;-66
2021/08/13 08:18:46;;;;;;;;;;;43.70;29.70;;;;;;5014410;28;20494;-65
2021/08/13 08:21:12;;;;;;;;;;;43.90;29.80;;;;;;5014225;28;19925;-64
2021/08/13 08:23:37;;;;;;;;;;;44.30;29.50;;;;;;5013936;28;19917;-65
2021/08/13 08:26:03;;;;;;;;;;;44.10;29.10;;;;;;5014393;28;20012;-65
2021/08/13 08:28:29;;;;;;;;;;;43.70;29.10;;;;;;5014093;28;19921;-65
2021/08/13 08:30:54;;;;;;;;;;;43.90;29.70;;;;;;5013759;28;20000;-66
2021/08/13 08:33:20;;;;;;;;;;;44.50;29.60;;;;;;5012979;28;19922;-65
2021/08/13 08:35:46;;;;;;;;;;;45.00;29.10;;;;;;5013774;28;20008;-65
2021/08/13 08:38:12;;;;;;;;;;;45.40;28.80;;;;;;5013959;28;19940;-65
2021/08/13 08:40:38;;;;;;;;;;;45.60;28.40;;;;;;5014006;28;20429;-65
2021/08/13 08:43:05;;;;;;;;;;;45.00;28.10;;;;;;5013528;28;20397;-65
2021/08/13 08:45:32;;;;;;;;;;;44.50;28.20;;;;;;5013913;28;19917;-66
2021/08/13 08:47:58;;;;;;;;;;;44.30;28.50;;;;;;5013493;28;19917;-66
2021/08/13 08:50:24;;;;;;;;;;;44.70;28.80;;;;;;5013380;28;19925;-66
2021/08/13 08:52:50;;;;;;;;;;;45.20;28.40;;;;;;5013736;28;19921;-66
2021/08/13 08:55:16;;;;;;;;;;;45.40;28.10;;;;;;5013442;28;19983;-66
2021/08/13 08:57:44;;;;;;;;;;;45.80;28.20;;;;;;5013290;28;19917;-66
2021/08/13 09:00:09;;;;;;;;;;;46.40;27.70;;;;;;5013526;28;19947;-66
2021/08/13 09:02:35;;;;;;;;;;;46.50;27.50;;;;;;5013446;28;20354;-66
2021/08/13 09:05:00;;;;;;;;;;;46.50;27.30;;;;;;5012522;28;19952;-66
2021/08/13 09:07:26;;;;;;;;;;;46.30;27.20;;;;;;5012800;28;19977;-65
2021/08/13 09:09:52;;;;;;;;;;;46.00;27.00;;;;;;5012578;28;19936;-66
2021/08/13 09:12:18;;;;;;;;;;;45.80;27.20;;;;;;5013732;28;19917;-66
2021/08/13 09:14:43;;;;;;;;;;;45.80;27.10;;;;;;5013080;28;19922;-66
2021/08/13 09:17:09;;;;;;;;;;;45.70;26.80;;;;;;5013030;28;19917;-66
2021/08/13 09:19:41;;;;;;;;;;;45.90;27.20;;;;;;5013355;28;19924;-66
2021/08/13 09:22:07;;;;;;;;;;;46.30;27.10;;;;;;5012820;28;19925;-66
2021/08/13 09:24:36;;;;;;;;;;;46.60;26.80;;;;;;5013462;28;19913;-66
2021/08/13 09:27:13;;;;;;;;;;;46.50;26.50;;;;;;5012577;28;19945;-66
2021/08/13 09:29:40;;;;;;;;;;;46.20;26.60;;;;;;5028410;28;19923;-66
2021/08/13 09:32:24;;;;;;;;;;;45.50;26.60;;;;;;5012817;28;19925;-65
2021/08/13 09:34:51;;;;;;;;;;;44.70;26.80;;;;;;5013087;28;19922;-66
2021/08/13 09:37:17;;;;;;;;;;;44.30;27.30;;;;;;5012366;28;19967;-66
2021/08/13 09:39:42;;;;;;;;;;;44.00;27.50;;;;;;5011684;28;19918;-65
2021/08/13 09:42:08;;;;;;;;;;;43.80;27.60;;;;;;5012224;28;20001;-65
2021/08/13 09:44:34;;;;;;;;;;;43.50;27.60;;;;;;5027456;28;19950;-64
2021/08/13 09:47:07;;;;;;;;;;;42.80;27.70;;;;;;5011302;28;19952;-65
2021/08/13 09:49:34;;;;;;;;;;;42.30;28.00;;;;;;5010546;28;19917;-69
2021/08/13 09:52:10;;;;;;;;;;;41.70;28.20;;;;;;5010613;28;19925;-69
2021/08/13 09:54:36;;;;;;;;;;;41.20;28.70;;;;;;5011455;28;19937;-69
2021/08/13 09:57:20;;;;;;;;;;;40.90;29.00;;;;;;5011609;28;19917;-69
2021/08/13 10:00:03;;;;;;;;;;;41.00;29.30;;;;;;5011918;28;20364;-69
2021/08/13 10:02:40;;;;;;;;;;;41.60;29.50;;;;;;5011432;28;19929;-69
2021/08/13 10:05:21;;;;;;;;;;;41.70;29.10;;;;;;5012349;28;19918;-69
2021/08/13 10:07:50;;;;;;;;;;;41.40;28.80;;;;;;5011799;28;20269;-69
2021/08/13 10:10:16;;;;;;;;;;;41.20;29.30;;;;;;5027429;28;19939;-69
2021/08/13 10:12:44;;;;;;;;;;;41.30;29.30;;;;;;5010561;28;19913;-68
2021/08/13 10:15:11;;;;;;;;;;;41.30;29.00;;;;;;5027505;28;19917;-69
2021/08/13 10:17:37;;;;;;;;;;;41.10;29.10;;;;;;5027060;28;20434;-69
2021/08/13 10:20:08;;;;;;;;;;;40.80;29.10;;;;;;5026685;28;19932;-69
2021/08/13 10:22:34;;;;;;;;;;;40.60;29.40;;;;;;4987693;28;19922;-70
2021/08/13 10:25:00;;;;;;;;;;;40.70;29.80;;;;;;5016735;28;19918;-69
2021/08/13 10:27:28;;;;;;;;;;;41.20;30.30;;;;;;5020815;28;20310;-69
2021/08/13 10:29:58;;;;;;;;;;;41.70;29.90;;;;;;5010344;28;19918;-70
2021/08/13 10:32:32;;;;;;;;;;;41.90;29.60;;;;;;5017650;28;19968;-69
2021/08/13 10:34:58;;;;;;;;;;;41.20;29.10;;;;;;5001017;28;19918;-69
2021/08/13 10:37:25;;;;;;;;;;;40.70;29.50;;;;;;5009659;28;19929;-69
2021/08/13 10:39:54;;;;;;;;;;;40.20;29.40;;;;;;5043053;28;20048;-69
2021/08/13 10:42:21;;;;;;;;;;;39.10;29.40;;;;;;5039704;28;19918;-69
2021/08/13 10:44:50;;;;;;;;;;;38.00;30.50;;;;;;5000028;28;19918;-69
2021/08/13 10:47:19;;;;;;;;;;;37.80;31.40;;;;;;4998727;28;19925;-69
2021/08/13 10:49:46;;;;;;;;;;;38.00;32.20;;;;;;4999971;28;20269;-68
2021/08/13 10:52:12;;;;;;;;;;;38.50;32.00;;;;;;5002510;28;19925;-69
2021/08/13 10:54:40;;;;;;;;;;;38.20;31.10;;;;;;5001853;28;19944;-69
2021/08/13 10:57:07;;;;;;;;;;;37.40;31.60;;;;;;5032264;28;19940;-68
2021/08/13 10:59:40;;;;;;;;;;;36.40;32.00;;;;;;5001319;28;20481;-61
2021/08/13 11:02:12;;;;;;;;;;;35.60;32.60;;;;;;5001978;28;19932;-68
2021/08/13 11:04:43;;;;;;;;;;;34.80;33.70;;;;;;5008335;28;19924;-69
2021/08/13 11:07:10;;;;;;;;;;;34.70;35.00;;;;;;5007773;28;19918;-69
2021/08/13 11:09:36;;;;;;;;;;;35.30;35.80;;;;;;5008817;28;20286;-69
2021/08/13 11:12:10;;;;;;;;;;;35.60;35.00;;;;;;5026247;28;20346;-69
2021/08/13 11:14:47;;;;;;;;;;;36.20;35.30;;;;;;4992704;28;19975;-69
2021/08/13 11:17:33;;;;;;;;;;;36.20;34.20;;;;;;5026176;28;19918;-69
2021/08/13 11:20:02;;;;;;;;;;;35.50;33.50;;;;;;5024161;28;19918;-68
2021/08/13 11:22:37;;;;;;;;;;;34.30;34.50;;;;;;5022032;28;20377;-69
2021/08/13 11:25:04;;;;;;;;;;;34.50;36.00;;;;;;5026179;28;20520;-68
2021/08/13 11:27:32;;;;;;;;;;;34.30;35.20;;;;;;5009481;28;20003;-68
2021/08/13 11:29:58;;;;;;;;;;;34.00;36.10;;;;;;5020448;28;19961;-68
2021/08/13 11:32:34;;;;;;;;;;;33.90;36.20;;;;;;5028423;28;19925;-69
2021/08/13 11:35:08;;;;;;;;;;;33.70;37.20;;;;;;5030191;28;20278;-69
2021/08/13 11:37:42;;;;;;;;;;;34.10;37.60;;;;;;5013236;28;19967;-68
2021/08/13 11:40:07;;;;;;;;;;;34.00;36.70;;;;;;5012873;28;19940;-63
2021/08/13 11:42:35;;;;;;;;;;;33.70;37.10;;;;;;5028272;28;20008;-63
2021/08/13 11:45:03;;;;;;;;;;;33.30;37.50;;;;;;5030090;28;19913;-63
2021/08/13 11:47:29;;;;;;;;;;;33.10;38.50;;;;;;5013204;28;19921;-63
2021/08/13 11:49:55;;;;;;;;;;;33.00;39.00;;;;;;5013041;28;19918;-63
2021/08/13 11:52:22;;;;;;;;;;;33.10;38.80;;;;;;5017790;28;20381;-63
2021/08/13 11:54:47;;;;;;;;;;;33.00;39.00;;;;;;5014719;28;20304;-60
2021/08/13 11:57:17;;;;;;;;;;;33.10;39.70;;;;;;5013047;28;20008;-61
2021/08/13 11:59:44;;;;;;;;;;;33.20;39.30;;;;;;5013298;28;20290;-60
2021/08/13 12:02:10;;;;;;;;;;;33.10;39.50;;;;;;5012442;28;20024;-61
2021/08/13 12:04:35;;;;;;;;;;;33.20;40.00;;;;;;5013265;28;19944;-60
2021/08/13 12:07:04;;;;;;;;;;;33.30;39.80;;;;;;5014418;28;19948;-60
2021/08/13 12:09:33;;;;;;;;;;;33.50;39.70;;;;;;5012686;28;19945;-60
2021/08/13 12:12:03;;;;;;;;;;;33.30;39.60;;;;;;5013064;28;19925;-60
2021/08/13 12:14:29;;;;;;;;;;;33.20;39.90;;;;;;5029038;28;20388;-61
2021/08/13 12:16:55;;;;;;;;;;;33.30;40.20;;;;;;5029154;28;19957;-60
2021/08/13 12:19:22;;;;;;;;;;;33.00;39.20;;;;;;5029750;28;19960;-61
2021/08/13 12:21:54;;;;;;;;;;;32.60;39.60;;;;;;5012865;28;19914;-60
2021/08/13 12:24:32;;;;;;;;;;;32.00;40.00;;;;;;5014487;28;19929;-60
2021/08/13 12:27:01;;;;;;;;;;;31.60;40.50;;;;;;5012457;28;19918;-61
2021/08/13 12:29:28;;;;;;;;;;;31.40;41.10;;;;;;5011480;28;19925;-61
2021/08/13 12:31:55;;;;;;;;;;;31.10;41.50;;;;;;5011018;28;19925;-60
2021/08/13 12:34:25;;;;;;;;;;;31.00;42.30;;;;;;5012614;28;19929;-61
2021/08/13 12:37:04;;;;;;;;;;;31.00;43.10;;;;;;5028613;28;19997;-60
2021/08/13 12:39:31;;;;;;;;;;;31.20;43.00;;;;;;5012526;28;19918;-61
2021/08/13 12:41:57;;;;;;;;;;;31.30;42.50;;;;;;5028176;28;19956;-61
2021/08/13 12:44:23;;;;;;;;;;;31.10;42.60;;;;;;5010115;28;19914;-63
2021/08/13 12:46:50;;;;;;;;;;;31.00;43.10;;;;;;5028430;28;19924;-64
2021/08/13 12:49:16;;;;;;;;;;;31.00;43.10;;;;;;5010823;28;20361;-64
2021/08/13 12:51:41;;;;;;;;;;;31.00;43.30;;;;;;5005932;28;19933;-63
2021/08/13 12:54:26;;;;;;;;;;;30.90;43.20;;;;;;5029070;28;20381;-63
2021/08/13 12:56:58;;;;;;;;;;;30.80;43.20;;;;;;5011955;28;19971;-63
2021/08/13 12:59:32;;;;;;;;;;;30.60;43.20;;;;;;5012418;28;19921;-64
2021/08/13 13:02:00;;;;;;;;;;;30.10;43.50;;;;;;5012910;28;21353;-60
2021/08/13 13:04:37;;;;;;;;;;;29.80;44.20;;;;;;5012267;28;20401;-61
2021/08/13 13:07:03;;;;;;;;;;;29.60;45.00;;;;;;5027935;28;19917;-60
2021/08/13 13:09:30;;;;;;;;;;;29.50;45.50;;;;;;5011297;28;24347;-60
2021/08/13 13:12:14;;;;;;;;;;;29.70;45.80;;;;;;5011733;28;19996;-61
2021/08/13 13:14:40;;;;;;;;;;;29.90;46.00;;;;;;5013357;28;19926;-61
2021/08/13 13:17:07;;;;;;;;;;;30.10;45.70;;;;;;5012701;28;20400;-60
2021/08/13 13:19:35;;;;;;;;;;;30.10;45.70;;;;;;5028145;28;19920;-61
2021/08/13 13:22:21;;;;;;;;;;;30.20;45.40;;;;;;5012050;28;19918;-60
2021/08/13 13:25:05;;;;;;;;;;;30.20;45.50;;;;;;5013025;28;19918;-60
2021/08/13 13:27:51;;;;;;;;;;;30.20;45.50;;;;;;5025851;28;19921;-62
2021/08/13 13:30:41;;;;;;;;;;;30.00;45.10;;;;;;4998285;28;20369;-60
2021/08/13 13:33:13;;;;;;;;;;;29.80;45.70;;;;;;5027955;28;19925;-60
2021/08/13 13:36:00;;;;;;;;;;;29.80;46.30;;;;;;5011375;28;19952;-59
2021/08/13 13:38:31;;;;;;;;;;;30.00;46.10;;;;;;5011600;28;20459;-60
2021/08/13 13:40:57;;;;;;;;;;;30.10;46.10;;;;;;5008278;28;19992;-60
2021/08/13 13:43:23;;;;;;;;;;;30.10;46.20;;;;;;5011316;28;20286;-59
2021/08/13 13:45:52;;;;;;;;;;;30.10;45.90;;;;;;5022845;28;19944;-62
2021/08/13 13:48:17;;;;;;;;;;;30.00;46.00;;;;;;5008798;28;19921;-59
2021/08/13 13:50:43;;;;;;;;;;;29.80;46.20;;;;;;5027293;28;19918;-60
2021/08/13 13:53:08;;;;;;;;;;;29.50;46.40;;;;;;5012568;28;20028;-58
2021/08/13 13:55:35;;;;;;;;;;;29.40;46.90;;;;;;5026925;28;19917;-60
2021/08/13 13:58:01;;;;;;;;;;;29.10;47.30;;;;;;5027444;28;20004;-60
2021/08/13 14:00:27;;;;;;;;;;;29.10;47.90;;;;;;5027267;28;20000;-60
2021/08/13 14:02:54;;;;;;;;;;;29.20;48.60;;;;;;5011057;28;19925;-60
2021/08/13 14:05:20;;;;;;;;;;;29.40;48.30;;;;;;5027843;28;19918;-59
2021/08/13 14:07:49;;;;;;;;;;;29.50;47.70;;;;;;5010701;28;19917;-61
2021/08/13 14:10:17;;;;;;;;;;;29.40;47.70;;;;;;5026388;28;19967;-60
2021/08/13 14:12:43;;;;;;;;;;;29.10;47.80;;;;;;5025994;28;19947;-60
2021/08/13 14:15:10;;;;;;;;;;;28.90;48.20;;;;;;5010692;28;19922;-68
2021/08/13 14:17:39;;;;;;;;;;;28.80;48.50;;;;;;5027110;28;19917;-68
2021/08/13 14:20:06;;;;;;;;;;;28.70;48.70;;;;;;5026949;28;19921;-68
2021/08/13 14:22:32;;;;;;;;;;;28.50;48.90;;;;;;4994657;28;19918;-69